createdAt,value
2022-08-25T00:00:10.966Z,0.20
2022-08-25T00:01:18.546Z,0.20
2022-08-25T00:02:29.956Z,0.20
2022-08-25T00:03:35.991Z,0.20
2022-08-25T00:04:46.384Z,0.17
2022-08-25T00:05:59.570Z,0.20
2022-08-25T00:07:05.562Z,0.10
2022-08-25T00:08:09.951Z,0.10
2022-08-25T00:09:18.350Z,0.20
2022-08-25T00:10:22.511Z,0.10
2022-08-25T00:11:30.527Z,0.20
2022-08-25T00:12:36.088Z,0.20
2022-08-25T00:13:43.888Z,0.20
2022-08-25T00:14:48.393Z,0.20
2022-08-25T00:16:00.546Z,0.20
2022-08-25T00:17:04.429Z,0.20
2022-08-25T00:18:19.704Z,0.10
2022-08-25T00:19:26.838Z,0.20
2022-08-25T00:20:32.726Z,0.20
2022-08-25T00:21:37.473Z,0.20
2022-08-25T00:22:48.124Z,0.20
2022-08-25T00:23:53.467Z,0.20
2022-08-25T00:24:57.578Z,0.20
2022-08-25T00:26:09.227Z,0.20
2022-08-25T00:27:19.444Z,0.20
2022-08-25T00:28:24.499Z,0.20
2022-08-25T00:29:30.106Z,0.20
2022-08-25T00:30:37.683Z,0.20
2022-08-25T00:31:45.960Z,0.20
2022-08-25T00:32:55.183Z,0.20
2022-08-25T00:34:02.608Z,0.20
2022-08-25T00:35:09.262Z,0.20
2022-08-25T00:36:20.871Z,0.20
2022-08-25T00:37:28.454Z,0.30
2022-08-25T00:38:33.837Z,0.20
2022-08-25T00:39:40.338Z,0.10
2022-08-25T00:41:06.294Z,0.20
2022-08-25T00:42:21.491Z,0.28
2022-08-25T00:43:30.604Z,0.20
2022-08-25T00:44:39.809Z,0.20
2022-08-25T00:45:42.542Z,0.20
2022-08-25T00:46:50.130Z,0.20
2022-08-25T00:47:53.997Z,0.20
2022-08-25T00:49:05.491Z,0.20
2022-08-25T00:50:12.046Z,0.20
2022-08-25T00:51:24.280Z,0.20
2022-08-25T00:52:35.400Z,0.20
2022-08-25T00:53:41.944Z,0.20
2022-08-25T00:54:55.663Z,0.20
2022-08-25T00:56:00.067Z,0.10
2022-08-25T00:57:09.904Z,0.10
2022-08-25T00:58:18.840Z,0.20
2022-08-25T00:59:25.445Z,0.20
2022-08-25T01:00:35.468Z,0.20
2022-08-25T01:01:45.286Z,0.10
2022-08-25T01:02:48.734Z,0.20
2022-08-25T01:03:53.733Z,0.20
2022-08-25T01:05:32.093Z,0.15
2022-08-25T01:06:39.220Z,0.20
2022-08-25T01:07:44.748Z,0.15
2022-08-25T01:08:47.561Z,0.30
2022-08-25T01:09:53.930Z,0.20
2022-08-25T01:10:58.184Z,0.20
2022-08-25T01:12:01.610Z,0.20
2022-08-25T01:13:16.399Z,0.20
2022-08-25T01:14:22.770Z,0.20
2022-08-25T01:15:24.837Z,0.20
2022-08-25T01:16:28.203Z,0.20
2022-08-25T01:17:34.971Z,0.20
2022-08-25T01:18:47.952Z,0.20
2022-08-25T01:19:50.813Z,0.20
2022-08-25T01:20:54.796Z,0.20
2022-08-25T01:21:58.083Z,0.30
2022-08-25T01:23:01.169Z,0.20
2022-08-25T01:24:05.075Z,0.20
2022-08-25T01:25:21.069Z,0.20
2022-08-25T01:26:30.291Z,0.20
2022-08-25T01:27:32.853Z,0.20
2022-08-25T01:28:36.397Z,0.20
2022-08-25T01:29:39.260Z,0.20
2022-08-25T01:30:42.778Z,0.20
2022-08-25T01:31:45.347Z,0.20
2022-08-25T01:32:49.205Z,0.20
2022-08-25T01:33:51.202Z,0.20
2022-08-25T01:34:54.067Z,0.20
2022-08-25T01:35:57.448Z,0.20
2022-08-25T01:37:00.806Z,0.20
2022-08-25T01:38:04.322Z,0.20
2022-08-25T01:39:07.422Z,0.30
2022-08-25T01:40:10.362Z,0.28
2022-08-25T01:41:13.322Z,0.20
2022-08-25T01:42:34.639Z,0.10
2022-08-25T01:43:39.549Z,0.20
2022-08-25T01:44:44.233Z,0.25
2022-08-25T01:45:49.471Z,0.20
2022-08-25T01:46:54.472Z,0.20
2022-08-25T01:47:58.679Z,0.20
2022-08-25T01:49:06.591Z,0.20
2022-08-25T01:50:13.225Z,0.20
2022-08-25T01:51:22.561Z,0.20
2022-08-25T01:52:31.879Z,0.20
2022-08-25T01:53:35.695Z,0.30
2022-08-25T01:54:40.297Z,0.20
2022-08-25T01:55:54.219Z,0.20
2022-08-25T01:57:00.010Z,0.20
2022-08-25T01:58:02.989Z,0.20
2022-08-25T01:59:07.738Z,0.20
2022-08-25T02:00:19.481Z,0.20
2022-08-25T02:01:30.353Z,0.20
2022-08-25T02:02:37.329Z,0.20
2022-08-25T02:03:50.895Z,0.20
2022-08-25T02:04:56.523Z,0.20
2022-08-25T02:06:04.314Z,0.30
2022-08-25T02:07:09.450Z,0.20
2022-08-25T02:08:14.582Z,0.20
2022-08-25T02:09:19.000Z,0.20
2022-08-25T02:10:24.086Z,0.20
2022-08-25T02:11:27.913Z,0.20
2022-08-25T02:12:33.245Z,0.20
2022-08-25T02:13:35.927Z,0.30
2022-08-25T02:14:40.963Z,0.20
2022-08-25T02:15:50.611Z,0.30
2022-08-25T02:16:56.193Z,0.20
2022-08-25T02:18:01.185Z,0.20
2022-08-25T02:19:07.147Z,0.30
2022-08-25T02:20:12.721Z,0.30
2022-08-25T02:21:18.774Z,0.30
2022-08-25T02:22:24.546Z,0.20
2022-08-25T02:23:30.480Z,0.20
2022-08-25T02:24:35.288Z,0.20
2022-08-25T02:25:41.414Z,0.20
2022-08-25T02:26:46.203Z,0.20
2022-08-25T02:27:52.310Z,0.15
2022-08-25T02:28:56.655Z,0.30
2022-08-25T02:30:02.649Z,0.22
2022-08-25T02:31:10.126Z,0.20
2022-08-25T02:32:18.224Z,0.30
2022-08-25T02:33:32.157Z,0.20
2022-08-25T02:34:37.891Z,0.20
2022-08-25T02:35:41.532Z,0.20
2022-08-25T02:36:50.069Z,0.15
2022-08-25T02:37:56.614Z,0.20
2022-08-25T02:39:05.087Z,0.20
2022-08-25T02:40:11.559Z,0.20
2022-08-25T02:41:20.222Z,0.10
2022-08-25T02:42:25.000Z,0.20
2022-08-25T02:43:31.859Z,0.20
2022-08-25T02:44:36.280Z,0.20
2022-08-25T02:45:39.271Z,0.13
2022-08-25T02:46:42.732Z,0.20
2022-08-25T02:47:50.437Z,0.20
2022-08-25T02:48:54.511Z,0.30
2022-08-25T02:50:00.150Z,0.13
2022-08-25T02:51:05.256Z,0.20
2022-08-25T02:52:12.800Z,0.10
2022-08-25T02:53:18.533Z,0.20
2022-08-25T02:54:24.091Z,0.20
2022-08-25T02:55:29.978Z,0.20
2022-08-25T02:56:43.110Z,0.20
2022-08-25T02:57:48.447Z,0.10
2022-08-25T02:58:56.533Z,0.20
2022-08-25T03:00:00.443Z,0.20
2022-08-25T03:01:08.099Z,0.10
2022-08-25T03:02:14.945Z,0.20
2022-08-25T03:03:20.245Z,0.20
2022-08-25T03:04:23.675Z,0.20
2022-08-25T03:05:30.319Z,0.20
2022-08-25T03:06:32.740Z,0.20
2022-08-25T03:07:39.172Z,0.10
2022-08-25T03:08:45.051Z,0.10
2022-08-25T03:09:53.450Z,0.20
2022-08-25T03:11:02.314Z,0.20
2022-08-25T03:12:07.790Z,0.20
2022-08-25T03:13:10.703Z,0.20
2022-08-25T03:14:15.517Z,0.20
2022-08-25T03:15:19.587Z,0.20
2022-08-25T03:16:24.368Z,0.10
2022-08-25T03:17:32.640Z,0.20
2022-08-25T03:18:41.451Z,0.22
2022-08-25T03:19:46.569Z,0.20
2022-08-25T03:20:50.979Z,0.20
2022-08-25T03:21:57.056Z,0.28
2022-08-25T03:23:01.731Z,0.22
2022-08-25T03:24:08.678Z,0.20
2022-08-25T03:25:32.217Z,0.20
2022-08-25T03:26:58.662Z,0.20
2022-08-25T03:28:04.097Z,0.20
2022-08-25T03:29:09.045Z,0.20
2022-08-25T03:30:13.997Z,0.20
2022-08-25T03:31:22.655Z,0.20
2022-08-25T03:32:27.166Z,0.20
2022-08-25T03:33:31.988Z,0.20
2022-08-25T03:34:36.556Z,0.20
2022-08-25T03:35:39.300Z,0.20
2022-08-25T03:36:45.696Z,0.20
2022-08-25T03:37:50.383Z,0.17
2022-08-25T03:38:56.466Z,0.20
2022-08-25T03:40:13.989Z,0.10
2022-08-25T03:41:24.036Z,0.17
2022-08-25T03:42:33.002Z,0.20
2022-08-25T03:43:37.584Z,0.20
2022-08-25T03:44:43.508Z,0.20
2022-08-25T03:45:48.853Z,0.20
2022-08-25T03:46:55.132Z,0.25
2022-08-25T03:48:00.038Z,0.20
2022-08-25T03:49:06.926Z,0.20
2022-08-25T03:50:15.171Z,0.20
2022-08-25T03:51:24.756Z,0.20
2022-08-25T03:52:29.616Z,0.20
2022-08-25T03:53:35.619Z,0.30
2022-08-25T03:54:39.375Z,0.20
2022-08-25T03:55:46.629Z,0.20
2022-08-25T03:56:50.257Z,0.28
2022-08-25T03:57:58.238Z,0.20
2022-08-25T03:59:02.224Z,0.30
2022-08-25T04:00:12.505Z,0.30
2022-08-25T04:01:18.221Z,0.20
2022-08-25T04:02:22.865Z,0.28
2022-08-25T04:03:26.023Z,0.30
2022-08-25T04:04:30.885Z,0.30
2022-08-25T04:05:34.454Z,0.20
2022-08-25T04:06:41.160Z,0.30
2022-08-25T04:07:47.633Z,0.25
2022-08-25T04:08:53.613Z,0.30
2022-08-25T04:09:57.976Z,0.28
2022-08-25T04:11:10.461Z,0.20
2022-08-25T04:12:15.126Z,0.30
2022-08-25T04:13:23.567Z,0.30
2022-08-25T04:14:26.633Z,0.30
2022-08-25T04:15:31.571Z,0.20
2022-08-25T04:16:37.357Z,0.30
2022-08-25T04:17:43.418Z,0.20
2022-08-25T04:18:51.780Z,0.20
2022-08-25T04:19:56.239Z,0.20
2022-08-25T04:21:07.240Z,0.22
2022-08-25T04:22:11.962Z,0.30
2022-08-25T04:23:16.080Z,0.30
2022-08-25T04:24:22.070Z,0.30
2022-08-25T04:25:25.719Z,0.30
2022-08-25T04:26:35.065Z,0.30
2022-08-25T04:27:42.190Z,0.30
2022-08-25T04:28:48.212Z,0.20
2022-08-25T04:29:51.222Z,0.30
2022-08-25T04:30:55.713Z,0.20
2022-08-25T04:32:00.351Z,0.30
2022-08-25T04:33:08.733Z,0.40
2022-08-25T04:34:28.932Z,0.20
2022-08-25T04:35:35.873Z,0.30
2022-08-25T04:36:40.202Z,0.30
2022-08-25T04:37:45.719Z,0.30
2022-08-25T04:38:54.094Z,0.38
2022-08-25T04:40:05.085Z,0.30
2022-08-25T04:41:14.229Z,0.30
2022-08-25T04:42:21.099Z,0.30
2022-08-25T04:43:24.105Z,0.40
2022-08-25T04:44:31.371Z,0.40
2022-08-25T04:45:46.243Z,0.25
2022-08-25T04:46:54.282Z,0.35
2022-08-25T04:48:02.301Z,0.40
2022-08-25T04:49:08.551Z,0.40
2022-08-25T04:50:17.168Z,0.40
2022-08-25T04:51:24.927Z,0.40
2022-08-25T04:52:34.877Z,0.35
2022-08-25T04:53:40.565Z,0.40
2022-08-25T04:54:48.752Z,0.40
2022-08-25T04:56:01.788Z,0.40
2022-08-25T04:57:08.570Z,0.40
2022-08-25T04:58:20.257Z,0.40
2022-08-25T04:59:25.072Z,0.40
2022-08-25T05:00:41.400Z,0.32
2022-08-25T05:01:47.949Z,0.30
2022-08-25T05:02:58.617Z,0.40
2022-08-25T05:04:07.389Z,0.40
2022-08-25T05:05:15.471Z,0.40
2022-08-25T05:06:22.229Z,0.40
2022-08-25T05:07:27.055Z,0.30
2022-08-25T05:08:30.170Z,0.40
2022-08-25T05:09:34.918Z,0.40
2022-08-25T05:10:41.157Z,0.30
2022-08-25T05:11:48.032Z,0.40
2022-08-25T05:12:53.124Z,0.40
2022-08-25T05:14:02.429Z,0.30
2022-08-25T05:15:21.336Z,0.40
2022-08-25T05:16:27.727Z,0.30
2022-08-25T05:17:35.757Z,0.40
2022-08-25T05:18:39.734Z,0.40
2022-08-25T05:19:47.344Z,0.50
2022-08-25T05:20:52.302Z,0.40
2022-08-25T05:21:57.970Z,0.30
2022-08-25T05:23:02.525Z,0.40
2022-08-25T05:24:08.258Z,0.40
2022-08-25T05:25:12.786Z,0.40
2022-08-25T05:26:20.493Z,0.38
2022-08-25T05:27:26.880Z,0.40
2022-08-25T05:28:34.736Z,0.40
2022-08-25T05:29:44.632Z,0.40
2022-08-25T05:30:50.675Z,0.40
2022-08-25T05:31:55.616Z,0.40
2022-08-25T05:32:59.709Z,0.40
2022-08-25T05:34:10.275Z,0.32
2022-08-25T05:35:17.547Z,0.40
2022-08-25T05:36:30.631Z,0.30
2022-08-25T05:37:38.284Z,0.40
2022-08-25T05:38:43.107Z,0.30
2022-08-25T05:39:48.830Z,0.40
2022-08-25T05:40:53.608Z,0.40
2022-08-25T05:41:57.789Z,0.40
2022-08-25T05:43:02.852Z,0.35
2022-08-25T05:44:21.359Z,0.40
2022-08-25T05:45:27.986Z,0.40
2022-08-25T05:46:36.315Z,0.30
2022-08-25T05:47:42.827Z,0.40
2022-08-25T05:48:51.900Z,0.32
2022-08-25T05:50:00.685Z,0.40
2022-08-25T05:51:15.792Z,0.30
2022-08-25T05:52:22.191Z,0.30
2022-08-25T05:53:31.298Z,0.40
2022-08-25T05:54:40.872Z,0.40
2022-08-25T05:55:46.666Z,0.30
2022-08-25T05:56:53.344Z,0.30
2022-08-25T05:57:58.679Z,0.40
2022-08-25T05:59:09.465Z,0.30
2022-08-25T06:00:22.220Z,0.38
2022-08-25T06:01:51.178Z,0.30
2022-08-25T06:02:57.540Z,0.30
2022-08-25T06:04:05.898Z,0.38
2022-08-25T06:05:25.617Z,0.30
2022-08-25T06:06:27.642Z,0.30
2022-08-25T06:07:33.632Z,0.30
2022-08-25T06:08:39.253Z,0.28
2022-08-25T06:09:47.317Z,0.40
2022-08-25T06:12:00.613Z,0.40
2022-08-25T06:13:06.509Z,0.40
2022-08-25T06:14:12.032Z,0.30
2022-08-25T06:15:34.992Z,0.40
2022-08-25T06:16:45.633Z,0.38
2022-08-25T06:17:51.934Z,0.30
2022-08-25T06:19:04.880Z,0.30
2022-08-25T06:20:11.088Z,0.30
2022-08-25T06:21:19.660Z,0.40
2022-08-25T06:22:23.171Z,0.40
2022-08-25T06:23:28.379Z,0.30
2022-08-25T06:24:40.253Z,0.30
2022-08-25T06:25:55.173Z,0.30
2022-08-25T06:27:03.635Z,0.40
2022-08-25T06:28:11.232Z,0.40
2022-08-25T06:29:15.052Z,0.30
2022-08-25T06:30:28.887Z,0.32
2022-08-25T06:31:46.494Z,0.40
2022-08-25T06:32:55.195Z,0.40
2022-08-25T06:34:03.257Z,0.40
2022-08-25T06:35:11.604Z,0.40
2022-08-25T06:36:17.647Z,0.30
2022-08-25T06:37:25.484Z,0.30
2022-08-25T06:38:28.525Z,0.30
2022-08-25T06:39:36.430Z,0.30
2022-08-25T06:40:46.178Z,0.30
2022-08-25T06:41:54.599Z,0.32
2022-08-25T06:43:00.044Z,0.30
2022-08-25T06:44:14.482Z,0.30
2022-08-25T06:45:25.390Z,0.40
2022-08-25T06:46:36.258Z,0.40
2022-08-25T06:47:45.528Z,0.30
2022-08-25T06:48:54.637Z,0.40
2022-08-25T06:50:06.506Z,0.40
2022-08-25T06:51:15.211Z,0.40
2022-08-25T06:52:19.701Z,0.40
2022-08-25T06:53:27.736Z,0.50
2022-08-25T06:54:36.291Z,0.40
2022-08-25T06:55:43.455Z,0.40
2022-08-25T06:56:54.737Z,0.30
2022-08-25T06:57:59.429Z,0.40
2022-08-25T06:59:08.191Z,0.30
2022-08-25T07:00:20.285Z,0.40
2022-08-25T07:01:31.278Z,0.40
2022-08-25T07:02:38.771Z,0.30
2022-08-25T07:03:48.656Z,0.40
2022-08-25T07:05:00.537Z,0.40
2022-08-25T07:06:05.764Z,0.40
2022-08-25T07:07:13.899Z,0.40
2022-08-25T07:08:18.177Z,0.40
2022-08-25T07:09:28.946Z,0.40
2022-08-25T07:10:35.367Z,0.30
2022-08-25T07:11:56.313Z,0.30
2022-08-25T07:13:05.578Z,0.30
2022-08-25T07:14:23.040Z,0.30
2022-08-25T07:15:33.699Z,0.38
2022-08-25T07:16:40.770Z,0.40
2022-08-25T07:17:45.984Z,0.40
2022-08-25T07:18:59.166Z,0.40
2022-08-25T07:20:09.073Z,0.40
2022-08-25T07:21:25.795Z,0.50
2022-08-25T07:22:41.159Z,0.50
2022-08-25T07:23:51.293Z,0.40
2022-08-25T07:24:56.155Z,0.40
2022-08-25T07:27:42.573Z,0.40
2022-08-25T07:28:52.027Z,0.40
2022-08-25T07:31:41.625Z,0.40
2022-08-25T07:32:56.779Z,0.35
2022-08-25T07:34:25.558Z,0.40
2022-08-25T07:37:07.981Z,0.45
2022-08-25T07:38:12.986Z,0.50
2022-08-25T07:39:21.965Z,0.50
2022-08-25T07:40:33.262Z,0.50
2022-08-25T07:41:43.463Z,0.50
2022-08-25T07:42:55.748Z,0.50
2022-08-25T07:44:00.793Z,0.50
2022-08-25T07:45:09.427Z,0.40
2022-08-25T07:46:17.622Z,0.40
2022-08-25T07:48:15.010Z,0.50
2022-08-25T07:50:55.641Z,0.50
2022-08-25T07:52:06.441Z,0.50
2022-08-25T07:53:16.594Z,0.50
2022-08-25T07:54:34.114Z,0.60
2022-08-25T07:55:45.216Z,0.50
2022-08-25T07:56:53.051Z,0.50
2022-08-25T07:58:02.451Z,0.40
2022-08-25T07:59:12.567Z,0.50
2022-08-25T08:00:20.311Z,0.50
2022-08-25T08:01:25.226Z,0.40
2022-08-25T08:02:36.239Z,0.50
2022-08-25T08:03:50.263Z,0.57
2022-08-25T08:04:59.059Z,0.60
2022-08-25T08:06:16.677Z,0.50
2022-08-25T08:07:23.117Z,0.50
2022-08-25T08:08:36.123Z,0.50
2022-08-25T08:11:05.604Z,0.40
2022-08-25T08:12:10.868Z,0.50
2022-08-25T08:13:18.631Z,0.40
2022-08-25T08:14:25.273Z,0.40
2022-08-25T08:15:29.973Z,0.40
2022-08-25T08:16:36.141Z,0.50
2022-08-25T08:17:47.836Z,0.50
2022-08-25T08:18:55.601Z,0.50
2022-08-25T08:20:00.905Z,0.50
2022-08-25T08:21:04.559Z,0.50
2022-08-25T08:22:06.976Z,0.50
2022-08-25T08:23:11.566Z,0.50
2022-08-25T08:24:25.145Z,0.50
2022-08-25T08:25:43.597Z,0.50
2022-08-25T08:26:58.720Z,0.40
2022-08-25T08:28:02.509Z,0.40
2022-08-25T08:29:04.468Z,0.40
2022-08-25T08:30:10.591Z,0.45
2022-08-25T08:31:12.540Z,0.40
2022-08-25T08:32:15.642Z,0.40
2022-08-25T08:33:20.758Z,0.50
2022-08-25T08:34:25.170Z,0.45
2022-08-25T08:35:28.577Z,0.40
2022-08-25T08:36:31.702Z,0.40
2022-08-25T08:37:33.791Z,0.50
2022-08-25T08:38:37.932Z,0.40
2022-08-25T08:39:42.485Z,0.40
2022-08-25T08:41:12.622Z,0.50
2022-08-25T08:42:38.376Z,0.50
2022-08-25T08:43:43.170Z,0.50
2022-08-25T08:45:04.734Z,0.40
2022-08-25T08:46:12.625Z,0.50
2022-08-25T08:47:26.365Z,0.43
2022-08-25T08:48:50.797Z,0.50
2022-08-25T08:50:04.498Z,0.50
2022-08-25T08:51:20.228Z,0.45
2022-08-25T08:52:38.609Z,0.50
2022-08-25T08:53:46.154Z,0.50
2022-08-25T08:54:52.369Z,0.50
2022-08-25T08:55:57.358Z,0.50
2022-08-25T08:57:06.804Z,0.60
2022-08-25T08:58:14.405Z,0.52
2022-08-25T08:59:19.904Z,0.60
2022-08-25T09:00:22.961Z,0.50
2022-08-25T09:01:31.652Z,0.50
2022-08-25T09:02:51.607Z,0.50
2022-08-25T09:04:01.040Z,0.50
2022-08-25T09:05:10.847Z,0.50
2022-08-25T09:07:21.646Z,0.50
2022-08-25T09:08:24.462Z,0.50
2022-08-25T09:09:31.244Z,0.47
2022-08-25T09:10:50.565Z,0.50
2022-08-25T09:12:05.859Z,0.50
2022-08-25T09:13:19.120Z,0.50
2022-08-25T09:14:35.277Z,0.40
2022-08-25T09:16:07.761Z,0.50
2022-08-25T09:17:19.259Z,0.50
2022-08-25T09:18:32.556Z,0.50
2022-08-25T09:20:04.925Z,0.50
2022-08-25T09:21:17.479Z,0.40
2022-08-25T09:22:35.102Z,0.50
2022-08-25T09:23:51.211Z,0.50
2022-08-25T09:25:03.386Z,0.50
2022-08-25T09:26:26.633Z,0.50
2022-08-25T09:27:36.512Z,0.30
2022-08-25T09:29:59.744Z,0.50
2022-08-25T09:31:05.887Z,0.50
2022-08-25T09:32:08.732Z,0.45
2022-08-25T09:33:20.961Z,0.50
2022-08-25T09:34:28.614Z,0.40
2022-08-25T09:35:32.955Z,0.43
2022-08-25T09:36:39.246Z,0.50
2022-08-25T09:37:41.182Z,0.40
2022-08-25T09:38:44.735Z,0.50
2022-08-25T09:39:47.629Z,0.50
2022-08-25T09:40:55.620Z,0.50
2022-08-25T09:42:00.998Z,0.50
2022-08-25T09:43:10.246Z,0.50
2022-08-25T09:44:21.958Z,0.50
2022-08-25T09:45:40.699Z,0.50
2022-08-25T09:46:57.216Z,0.50
2022-08-25T09:47:59.066Z,0.50
2022-08-25T09:49:13.432Z,0.50
2022-08-25T09:50:19.996Z,0.50
2022-08-25T09:51:27.610Z,0.50
2022-08-25T09:52:35.201Z,0.50
2022-08-25T09:53:51.374Z,0.50
2022-08-25T09:54:55.785Z,0.50
2022-08-25T09:56:06.752Z,0.50
2022-08-25T09:57:09.292Z,0.50
2022-08-25T09:58:20.568Z,0.50
2022-08-25T09:59:34.188Z,0.50
2022-08-25T10:00:38.265Z,0.40
2022-08-25T10:01:49.901Z,0.50
2022-08-25T10:03:06.518Z,0.40
2022-08-25T10:04:17.707Z,0.40
2022-08-25T10:05:23.706Z,0.40
2022-08-25T10:06:29.160Z,0.50
2022-08-25T10:07:51.822Z,0.50
2022-08-25T10:09:00.435Z,0.50
2022-08-25T10:10:07.607Z,0.50
2022-08-25T10:11:15.324Z,0.40
2022-08-25T10:12:21.225Z,0.40
2022-08-25T10:13:39.095Z,0.43
2022-08-25T10:14:44.525Z,0.40
2022-08-25T10:15:48.544Z,0.40
2022-08-25T10:16:51.186Z,0.40
2022-08-25T10:17:54.851Z,0.50
2022-08-25T10:19:04.404Z,0.60
2022-08-25T10:20:18.247Z,0.50
2022-08-25T10:21:20.121Z,0.50
2022-08-25T10:22:26.759Z,0.47
2022-08-25T10:23:31.287Z,0.50
2022-08-25T10:24:35.049Z,0.50
2022-08-25T10:25:43.808Z,0.45
2022-08-25T10:27:09.991Z,0.50
2022-08-25T10:28:23.619Z,0.50
2022-08-25T10:29:56.622Z,0.50
2022-08-25T10:31:10.332Z,0.50
2022-08-25T10:32:19.955Z,0.40
2022-08-25T10:33:33.570Z,0.40
2022-08-25T10:34:46.901Z,0.50
2022-08-25T10:35:59.847Z,0.40
2022-08-25T10:37:11.607Z,0.40
2022-08-25T10:38:36.872Z,0.50
2022-08-25T10:39:42.614Z,0.47
2022-08-25T10:40:51.344Z,0.40
2022-08-25T10:42:04.360Z,0.40
2022-08-25T10:43:29.050Z,0.40
2022-08-25T10:44:57.034Z,0.40
2022-08-25T10:46:12.447Z,0.40
2022-08-25T10:47:34.986Z,0.40
2022-08-25T10:48:58.948Z,0.40
2022-08-25T10:50:05.678Z,0.40
2022-08-25T10:51:25.781Z,0.40
2022-08-25T10:52:38.699Z,0.50
2022-08-25T10:53:53.301Z,0.30
2022-08-25T10:55:05.714Z,0.50
2022-08-25T10:56:16.464Z,0.50
2022-08-25T10:57:23.400Z,0.47
2022-08-25T10:58:37.102Z,0.50
2022-08-25T10:59:52.379Z,0.50
2022-08-25T11:01:04.784Z,0.50
2022-08-25T11:02:35.463Z,0.50
2022-08-25T11:03:47.596Z,0.47
2022-08-25T11:05:00.206Z,0.40
2022-08-25T11:06:07.857Z,0.50
2022-08-25T11:07:15.471Z,0.40
2022-08-25T11:08:32.755Z,0.50
2022-08-25T11:09:41.299Z,0.50
2022-08-25T11:10:50.600Z,0.50
2022-08-25T11:11:57.535Z,0.50
2022-08-25T11:13:05.223Z,0.50
2022-08-25T11:14:12.223Z,0.40
2022-08-25T11:15:20.682Z,0.50
2022-08-25T11:16:37.121Z,0.50
2022-08-25T11:17:47.341Z,0.40
2022-08-25T11:18:58.611Z,0.40
2022-08-25T11:20:06.071Z,0.40
2022-08-25T11:21:13.012Z,0.40
2022-08-25T11:22:21.281Z,0.40
2022-08-25T11:23:25.939Z,0.45
2022-08-25T11:24:48.429Z,0.40
2022-08-25T11:25:54.056Z,0.50
2022-08-25T11:26:58.075Z,0.40
2022-08-25T11:28:07.494Z,0.40
2022-08-25T11:29:14.445Z,0.40
2022-08-25T11:30:20.349Z,0.40
2022-08-25T11:31:24.725Z,0.50
2022-08-25T11:32:27.892Z,0.40
2022-08-25T11:33:31.673Z,0.30
2022-08-25T11:34:43.012Z,0.40
2022-08-25T11:35:51.257Z,0.40
2022-08-25T11:36:57.597Z,0.40
2022-08-25T11:38:27.889Z,0.35
2022-08-25T11:39:52.189Z,0.40
2022-08-25T11:41:11.110Z,0.30
2022-08-25T11:42:26.092Z,0.40
2022-08-25T11:43:44.146Z,0.40
2022-08-25T11:44:54.989Z,0.40
2022-08-25T11:46:12.843Z,0.40
2022-08-25T11:47:35.849Z,0.30
2022-08-25T11:48:47.398Z,0.38
2022-08-25T11:49:53.144Z,0.40
2022-08-25T11:51:00.452Z,0.30
2022-08-25T11:52:05.116Z,0.40
2022-08-25T11:53:28.135Z,0.40
2022-08-25T11:54:38.760Z,0.30
2022-08-25T11:55:52.517Z,0.40
2022-08-25T11:57:01.024Z,0.38
2022-08-25T11:58:42.526Z,0.40
2022-08-25T12:00:09.171Z,0.40
2022-08-25T12:01:28.985Z,0.40
2022-08-25T12:02:36.589Z,0.30
2022-08-25T12:04:12.365Z,0.30
2022-08-25T12:05:53.033Z,0.20
2022-08-25T12:07:18.616Z,0.30
2022-08-25T12:08:50.240Z,0.30
2022-08-25T12:10:26.989Z,0.30
2022-08-25T12:11:55.083Z,0.30
2022-08-25T12:13:29.097Z,0.30
2022-08-25T12:14:46.013Z,0.30
2022-08-25T12:15:58.167Z,0.30
2022-08-25T12:17:19.641Z,0.20
2022-08-25T12:18:45.958Z,0.20
2022-08-25T12:19:53.372Z,0.30
2022-08-25T12:21:33.211Z,0.32
2022-08-25T12:22:51.662Z,0.20
2022-08-25T12:24:10.202Z,0.20
2022-08-25T12:25:30.118Z,0.40
2022-08-25T12:26:46.202Z,0.30
2022-08-25T12:28:02.590Z,0.35
2022-08-25T12:29:17.631Z,0.28
2022-08-25T12:30:29.784Z,0.30
2022-08-25T12:32:04.857Z,0.30
2022-08-25T12:33:17.309Z,0.30
2022-08-25T12:34:34.978Z,0.30
2022-08-25T12:35:41.971Z,0.40
2022-08-25T12:36:57.982Z,0.40
2022-08-25T12:38:04.923Z,0.20
2022-08-25T12:39:24.164Z,0.30
2022-08-25T12:40:31.753Z,0.20
2022-08-25T12:41:35.515Z,0.32
2022-08-25T12:42:40.619Z,0.30
2022-08-25T12:43:47.407Z,0.30
2022-08-25T12:45:09.220Z,0.40
2022-08-25T12:46:44.926Z,0.30
2022-08-25T12:47:49.093Z,0.30
2022-08-25T12:48:57.782Z,0.30
2022-08-25T12:50:29.203Z,0.30
2022-08-25T12:51:54.760Z,0.30
2022-08-25T12:53:09.701Z,0.30
2022-08-25T12:54:19.063Z,0.30
2022-08-25T12:55:28.048Z,0.28
2022-08-25T12:56:39.148Z,0.30
2022-08-25T12:57:44.759Z,0.20
2022-08-25T12:59:00.926Z,0.30
2022-08-25T13:00:16.375Z,0.30
2022-08-25T13:01:35.768Z,0.30
2022-08-25T13:03:12.773Z,0.30
2022-08-25T13:04:46.280Z,0.30
2022-08-25T13:06:20.677Z,0.30
2022-08-25T13:07:40.259Z,0.20
2022-08-25T13:09:12.661Z,0.20
2022-08-25T13:10:23.223Z,0.30
2022-08-25T13:11:34.990Z,0.30
2022-08-25T13:12:45.091Z,0.30
2022-08-25T13:13:55.615Z,0.20
2022-08-25T13:14:59.564Z,0.35
2022-08-25T13:16:04.883Z,0.40
2022-08-25T13:17:09.571Z,0.30
2022-08-25T13:18:19.343Z,0.30
2022-08-25T13:19:22.374Z,0.30
2022-08-25T13:20:29.215Z,0.20
2022-08-25T13:21:35.962Z,0.30
2022-08-25T13:22:39.432Z,0.30
2022-08-25T13:23:45.678Z,0.30
2022-08-25T13:24:50.839Z,0.20
2022-08-25T13:25:55.347Z,0.30
2022-08-25T13:27:05.093Z,0.30
2022-08-25T13:28:25.470Z,0.40
2022-08-25T13:29:35.079Z,0.30
2022-08-25T13:30:40.023Z,0.30
2022-08-25T13:31:53.841Z,0.40
2022-08-25T13:32:56.768Z,0.30
2022-08-25T13:34:02.370Z,0.30
2022-08-25T13:35:13.947Z,0.30
2022-08-25T13:36:35.663Z,0.30
2022-08-25T13:37:38.650Z,0.30
2022-08-25T13:38:41.127Z,0.30
2022-08-25T13:39:56.426Z,0.35
2022-08-25T13:41:03.034Z,0.30
2022-08-25T13:42:15.980Z,0.40
2022-08-25T13:43:17.889Z,0.30
2022-08-25T13:44:36.038Z,0.30
2022-08-25T13:45:41.913Z,0.38
2022-08-25T13:46:47.097Z,0.35
2022-08-25T13:47:50.391Z,0.30
2022-08-25T13:49:05.620Z,0.30
2022-08-25T13:51:22.421Z,0.30
2022-08-25T13:52:29.314Z,0.30
2022-08-25T13:53:35.899Z,0.30
2022-08-25T13:54:42.859Z,0.30
2022-08-25T13:55:54.495Z,0.30
2022-08-25T13:57:09.365Z,0.30
2022-08-25T13:58:16.693Z,0.30
2022-08-25T13:59:40.304Z,0.30
2022-08-25T14:00:49.254Z,0.30
2022-08-25T14:01:57.473Z,0.30
2022-08-25T14:03:00.756Z,0.30
2022-08-25T14:04:27.872Z,0.28
2022-08-25T14:05:42.018Z,0.30
2022-08-25T14:06:44.625Z,0.30
2022-08-25T14:08:03.789Z,0.30
2022-08-25T14:09:27.932Z,0.30
2022-08-25T14:10:40.614Z,0.30
2022-08-25T14:11:47.788Z,0.30
2022-08-25T14:13:10.770Z,0.30
2022-08-25T14:14:33.793Z,0.30
2022-08-25T14:15:38.348Z,0.30
2022-08-25T14:16:52.183Z,0.30
2022-08-25T14:18:07.380Z,0.30
2022-08-25T14:19:20.287Z,0.30
2022-08-25T14:20:29.832Z,0.20
2022-08-25T14:21:34.864Z,0.30
2022-08-25T14:22:44.602Z,0.30
2022-08-25T14:23:48.596Z,0.30
2022-08-25T14:24:55.147Z,0.30
2022-08-25T14:25:59.358Z,0.30
2022-08-25T14:27:02.542Z,0.30
2022-08-25T14:28:08.569Z,0.30
2022-08-25T14:29:16.514Z,0.30
2022-08-25T14:30:29.132Z,0.30
2022-08-25T14:31:40.495Z,0.30
2022-08-25T14:32:45.601Z,0.30
2022-08-25T14:34:00.680Z,0.40
2022-08-25T14:35:09.718Z,0.40
2022-08-25T14:36:20.664Z,0.30
2022-08-25T14:37:25.309Z,0.20
2022-08-25T14:38:38.743Z,0.40
2022-08-25T14:39:41.084Z,0.30
2022-08-25T14:40:48.613Z,0.40
2022-08-25T14:41:55.913Z,0.30
2022-08-25T14:43:02.126Z,0.40
2022-08-25T14:44:06.821Z,0.40
2022-08-25T14:45:11.690Z,0.40
2022-08-25T14:46:20.642Z,0.40
2022-08-25T14:47:32.438Z,0.40
2022-08-25T14:48:42.993Z,0.40
2022-08-25T14:49:55.172Z,0.40
2022-08-25T14:51:03.259Z,0.30
2022-08-25T14:52:12.633Z,0.40
2022-08-25T14:53:19.532Z,0.30
2022-08-25T14:54:29.049Z,0.30
2022-08-25T14:55:32.448Z,0.40
2022-08-25T14:56:36.037Z,0.30
2022-08-25T14:57:44.492Z,0.30
2022-08-25T14:58:54.026Z,0.30
2022-08-25T15:00:09.082Z,0.30
2022-08-25T15:01:16.886Z,0.35
2022-08-25T15:02:29.382Z,0.30
2022-08-25T15:03:39.493Z,0.30
2022-08-25T15:04:51.825Z,0.30
2022-08-25T15:05:56.106Z,0.30
2022-08-25T15:07:01.590Z,0.30
2022-08-25T15:08:24.349Z,0.20
2022-08-25T15:09:33.540Z,0.28
2022-08-25T15:10:40.828Z,0.30
2022-08-25T15:11:51.160Z,0.25
2022-08-25T15:12:55.182Z,0.30
2022-08-25T15:14:01.292Z,0.30
2022-08-25T15:15:10.840Z,0.30
2022-08-25T15:16:24.812Z,0.30
2022-08-25T15:17:40.125Z,0.30
2022-08-25T15:18:49.397Z,0.30
2022-08-25T15:19:51.329Z,0.30
2022-08-25T15:20:57.766Z,0.30
2022-08-25T15:21:59.891Z,0.30
2022-08-25T15:23:07.063Z,0.30
2022-08-25T15:25:22.787Z,0.28
2022-08-25T15:26:31.747Z,0.40
2022-08-25T15:27:36.263Z,0.28
2022-08-25T15:28:42.689Z,0.30
2022-08-25T15:29:55.034Z,0.20
2022-08-25T15:30:57.677Z,0.20
2022-08-25T15:32:04.156Z,0.30
2022-08-25T15:33:07.115Z,0.30
2022-08-25T15:34:12.462Z,0.20
2022-08-25T15:35:15.323Z,0.20
2022-08-25T15:36:23.738Z,0.30
2022-08-25T15:37:26.717Z,0.20
2022-08-25T15:38:30.392Z,0.20
2022-08-25T15:39:33.618Z,0.30